Time;durP1;ratioP1;P1;durP2;ratioP2;P2;SDS_P1;SDS_P2;PMS_P1;PMS_P2;Temp;Humidity;BMP_temperature;BMP_pressure;BME280_temperature;BME280_humidity;BME280_pressure;Samples;Min_cycle;Max_cycle;Signal;HPM_P1;HPM_P2
2023/12/24 07:24:40;;;;;;;3.42;1.77;;;;;;;;;;6210745;22;20046;-88
2023/12/24 09:31:27;;;;;;;5.40;4.18;;;;;;;;;;6235842;22;20027;-94
2023/12/24 09:33:52;;;;;;;5.95;4.50;;;;;;;;;;6224140;23;20312;-93
2023/12/24 09:36:18;;;;;;;5.63;4.40;;;;;;;;;;6222223;23;20004;-92
2023/12/24 09:38:43;;;;;;;6.15;4.88;;;;;;;;;;6222501;23;20008;-93
2023/12/24 09:41:09;;;;;;;7.10;5.40;;;;;;;;;;6248773;23;20000;-92
2023/12/24 09:43:38;;;;;;;9.25;4.90;;;;;;;;;;6223119;23;20012;-90
2023/12/24 09:46:03;;;;;;;6.78;4.70;;;;;;;;;;6221658;23;20529;-89
2023/12/24 09:48:29;;;;;;;6.40;4.38;;;;;;;;;;6221140;23;20004;-87
2023/12/24 09:50:54;;;;;;;6.63;5.28;;;;;;;;;;6221466;23;20004;-92
2023/12/24 09:53:20;;;;;;;7.38;5.05;;;;;;;;;;6247892;23;20370;-88
2023/12/24 09:55:45;;;;;;;7.40;5.30;;;;;;;;;;6247982;23;20028;-89
2023/12/24 09:58:11;;;;;;;6.45;4.43;;;;;;;;;;6247583;22;20055;-87
2023/12/24 10:00:36;;;;;;;6.13;4.15;;;;;;;;;;6221249;23;20012;-90
2023/12/24 10:03:02;;;;;;;4.78;3.75;;;;;;;;;;6247946;23;20011;-91
2023/12/24 10:05:28;;;;;;;4.97;4.43;;;;;;;;;;6223113;23;20019;-93
2023/12/24 10:07:54;;;;;;;5.65;3.83;;;;;;;;;;6250474;23;20000;-93
2023/12/24 10:10:29;;;;;;;5.50;3.90;;;;;;;;;;6221298;23;20001;-89
2023/12/24 10:13:05;;;;;;;4.28;3.55;;;;;;;;;;6222112;23;20008;-92
2023/12/24 10:15:32;;;;;;;5.35;3.70;;;;;;;;;;6224624;23;20076;-94
2023/12/24 10:18:15;;;;;;;26.38;4.57;;;;;;;;;;6226824;22;20004;-94
2023/12/24 10:20:40;;;;;;;4.90;3.67;;;;;;;;;;6221430;23;20143;-91
2023/12/24 10:23:06;;;;;;;4.75;3.33;;;;;;;;;;6222453;23;20040;-94
2023/12/24 10:25:31;;;;;;;4.35;3.30;;;;;;;;;;6223348;23;20015;-91
2023/12/24 10:28:05;;;;;;;4.20;3.10;;;;;;;;;;6222553;22;20440;-89
2023/12/24 10:30:30;;;;;;;3.80;2.75;;;;;;;;;;6225639;23;20415;-89
2023/12/24 10:33:07;;;;;;;2.78;2.10;;;;;;;;;;6226956;23;20027;-89
2023/12/24 10:35:33;;;;;;;3.28;2.00;;;;;;;;;;6227704;23;20014;-91
2023/12/24 10:38:15;;;;;;;2.45;2.05;;;;;;;;;;6249082;22;19996;-92
2023/12/24 10:40:41;;;;;;;2.88;1.92;;;;;;;;;;6248778;23;20023;-93
2023/12/24 10:43:07;;;;;;;3.80;2.50;;;;;;;;;;6230515;23;20011;-94
2023/12/24 10:45:32;;;;;;;3.80;3.20;;;;;;;;;;6248264;23;20004;-91
2023/12/24 10:47:57;;;;;;;3.22;2.80;;;;;;;;;;6251655;22;20047;-92
2023/12/24 10:50:23;;;;;;;4.53;3.33;;;;;;;;;;6221728;23;20000;-91
2023/12/24 10:52:48;;;;;;;6.50;5.00;;;;;;;;;;6221434;23;20000;-94
2023/12/24 10:55:14;;;;;;;11.02;7.88;;;;;;;;;;6222644;23;20008;-91
2023/12/24 10:58:04;;;;;;;15.38;10.27;;;;;;;;;;6222205;23;20000;-90
2023/12/24 11:00:30;;;;;;;18.17;13.80;;;;;;;;;;6248772;23;20000;-91
2023/12/24 11:02:55;;;;;;;20.20;15.43;;;;;;;;;;6221920;23;20027;-92
2023/12/24 11:05:39;;;;;;;27.90;17.73;;;;;;;;;;6247825;23;20011;-94
2023/12/24 11:08:05;;;;;;;28.00;18.98;;;;;;;;;;6248319;22;20000;-85
2023/12/24 11:10:40;;;;;;;27.20;19.25;;;;;;;;;;6246351;23;20053;-85
2023/12/24 11:13:31;;;;;;;33.03;22.52;;;;;;;;;;6246116;23;20094;-85
2023/12/24 11:15:57;;;;;;;31.05;21.27;;;;;;;;;;6246342;23;20083;-86
2023/12/24 11:18:44;;;;;;;30.88;20.85;;;;;;;;;;6246676;22;20074;-92
2023/12/24 11:21:11;;;;;;;28.40;18.92;;;;;;;;;;6220127;23;20019;-85
2023/12/24 11:23:38;;;;;;;25.80;17.77;;;;;;;;;;6219523;23;20438;-83
2023/12/24 11:26:32;;;;;;;26.23;18.02;;;;;;;;;;6246435;23;20024;-85
2023/12/24 11:29:22;;;;;;;31.40;20.60;;;;;;;;;;6246141;22;20383;-86
2023/12/24 11:31:47;;;;;;;;;;;;;;;;;;6219501;23;20011;-84
2023/12/24 11:34:31;;;;;;;31.20;20.95;;;;;;;;;;6246172;23;20250;-83
2023/12/24 11:37:03;;;;;;;33.15;21.05;;;;;;;;;;6219286;23;20011;-83
2023/12/24 11:39:59;;;;;;;30.10;20.85;;;;;;;;;;6246095;22;20027;-83
2023/12/24 11:42:41;;;;;;;27.90;19.58;;;;;;;;;;6246231;23;20000;-88
2023/12/24 11:45:07;;;;;;;26.85;18.40;;;;;;;;;;6219437;23;20146;-86
2023/12/24 11:47:35;;;;;;;26.98;17.15;;;;;;;;;;6219229;23;20408;-85
2023/12/24 11:50:03;;;;;;;20.70;15.17;;;;;;;;;;6245903;22;20011;-85
2023/12/24 11:52:28;;;;;;;20.90;15.18;;;;;;;;;;6246379;23;20026;-86
2023/12/24 11:54:54;;;;;;;16.77;12.60;;;;;;;;;;6246287;23;20427;-86
2023/12/24 11:57:26;;;;;;;16.15;11.82;;;;;;;;;;6219407;23;20008;-86
2023/12/24 11:59:51;;;;;;;15.60;11.40;;;;;;;;;;6219451;23;20058;-86
2023/12/24 12:02:17;;;;;;;16.00;10.80;;;;;;;;;;6246157;23;20408;-87
2023/12/24 12:04:44;;;;;;;21.70;16.00;;;;;;;;;;6246492;23;20004;-88
2023/12/24 12:07:09;;;;;;;23.15;17.38;;;;;;;;;;6246065;23;20006;-85
2023/12/24 12:09:34;;;;;;;19.25;14.38;;;;;;;;;;6245823;22;20028;-84
2023/12/24 12:12:02;;;;;;;18.63;13.18;;;;;;;;;;6246196;23;20038;-84
2023/12/24 12:14:28;;;;;;;18.48;13.15;;;;;;;;;;6219122;23;20004;-86
2023/12/24 12:16:53;;;;;;;16.52;12.15;;;;;;;;;;6219406;23;20040;-85
2023/12/24 12:19:21;;;;;;;19.08;13.85;;;;;;;;;;6219653;23;20004;-84
2023/12/24 12:21:47;;;;;;;17.35;12.75;;;;;;;;;;6217726;23;20004;-86
2023/12/24 12:24:13;;;;;;;16.23;12.95;;;;;;;;;;6245817;23;20004;-85
2023/12/24 12:26:39;;;;;;;20.88;12.90;;;;;;;;;;6219520;23;20412;-85
2023/12/24 12:29:04;;;;;;;16.75;12.52;;;;;;;;;;6219140;23;20043;-85
2023/12/24 12:31:29;;;;;;;16.40;11.82;;;;;;;;;;6246892;23;20054;-87
2023/12/24 12:33:55;;;;;;;15.30;11.75;;;;;;;;;;6246691;23;20475;-87
2023/12/24 12:36:20;;;;;;;20.83;13.68;;;;;;;;;;6246480;23;20000;-88
2023/12/24 12:38:46;;;;;;;17.35;11.98;;;;;;;;;;6245971;22;20004;-87
2023/12/24 12:41:11;;;;;;;16.48;10.63;;;;;;;;;;6245730;23;20335;-87
2023/12/24 12:43:37;;;;;;;17.92;11.30;;;;;;;;;;6246085;23;20004;-87
2023/12/24 12:46:02;;;;;;;15.38;11.43;;;;;;;;;;6219064;23;20039;-88
2023/12/24 12:48:28;;;;;;;20.60;14.80;;;;;;;;;;6244394;23;20096;-88
2023/12/24 12:50:54;;;;;;;19.83;13.38;;;;;;;;;;6219019;23;20386;-88
2023/12/24 12:53:23;;;;;;;19.75;13.15;;;;;;;;;;6245968;23;20486;-87
2023/12/24 12:55:49;;;;;;;;;;;;;;;;;;6246371;23;20004;-87
2023/12/24 12:58:14;;;;;;;18.20;13.43;;;;;;;;;;6245824;22;19913;-87
2023/12/24 13:00:40;;;;;;;17.85;12.77;;;;;;;;;;6219380;23;20047;-88
2023/12/24 13:03:07;;;;;;;20.92;14.60;;;;;;;;;;6246280;23;20015;-86
2023/12/24 13:05:33;;;;;;;20.73;13.98;;;;;;;;;;6220629;23;20012;-87
2023/12/24 13:08:00;;;;;;;22.25;15.20;;;;;;;;;;6247562;22;19996;-86
2023/12/24 13:10:28;;;;;;;20.25;14.30;;;;;;;;;;6220682;23;20011;-87
2023/12/24 13:13:10;;;;;;;22.67;13.77;;;;;;;;;;6220819;23;20329;-87
2023/12/24 13:15:37;;;;;;;18.17;13.13;;;;;;;;;;6247707;23;20008;-86
2023/12/24 13:18:16;;;;;;;19.58;13.10;;;;;;;;;;6247566;22;20075;-86
2023/12/24 13:20:47;;;;;;;18.33;12.70;;;;;;;;;;6247465;23;20007;-87
2023/12/24 13:23:13;;;;;;;18.45;12.73;;;;;;;;;;6247901;23;20050;-87
2023/12/24 13:25:40;;;;;;;19.95;13.95;;;;;;;;;;6247292;23;20008;-86
2023/12/24 13:28:05;;;;;;;22.08;14.35;;;;;;;;;;6220508;22;20443;-87
2023/12/24 13:30:31;;;;;;;22.35;14.30;;;;;;;;;;6220700;23;20043;-88
2023/12/24 13:32:56;;;;;;;19.05;13.38;;;;;;;;;;6247340;23;20026;-86
2023/12/24 13:35:22;;;;;;;19.00;12.50;;;;;;;;;;6247723;23;20086;-87
2023/12/24 13:37:47;;;;;;;19.55;12.60;;;;;;;;;;6247433;23;20028;-86
2023/12/24 13:40:13;;;;;;;18.63;12.52;;;;;;;;;;6220431;23;20016;-85
2023/12/24 13:42:38;;;;;;;17.88;11.60;;;;;;;;;;6220872;23;20382;-88
2023/12/24 13:45:05;;;;;;;18.35;12.52;;;;;;;;;;6248211;23;20012;-94
2023/12/24 13:47:31;;;;;;;19.00;12.43;;;;;;;;;;6249479;23;20012;-94
2023/12/24 13:49:58;;;;;;;17.55;12.18;;;;;;;;;;6223559;23;20091;-92
2023/12/24 13:52:24;;;;;;;17.05;12.25;;;;;;;;;;6223038;23;20029;-92
2023/12/24 13:54:49;;;;;;;17.35;11.98;;;;;;;;;;6222038;23;20008;-90
2023/12/24 13:57:16;;;;;;;18.13;12.80;;;;;;;;;;6221382;23;20004;-89
2023/12/24 13:59:44;;;;;;;19.20;12.27;;;;;;;;;;6220971;23;20435;-90
2023/12/24 14:02:09;;;;;;;16.80;12.02;;;;;;;;;;6221150;23;20497;-90
2023/12/24 14:04:35;;;;;;;17.70;11.90;;;;;;;;;;6220963;23;20012;-86
2023/12/24 14:07:04;;;;;;;18.83;12.73;;;;;;;;;;6225261;23;20000;-92
2023/12/24 14:09:41;;;;;;;18.33;13.45;;;;;;;;;;6223280;23;20004;-91
2023/12/24 14:12:08;;;;;;;18.17;12.85;;;;;;;;;;6251579;23;20034;-90
2023/12/24 14:14:37;;;;;;;14.15;11.15;;;;;;;;;;6226381;23;20335;-93
2023/12/24 14:17:07;;;;;;;13.38;9.95;;;;;;;;;;6227747;23;20032;-91
2023/12/24 14:19:33;;;;;;;16.55;10.77;;;;;;;;;;6225518;23;20004;-91
2023/12/24 14:22:14;;;;;;;13.48;10.18;;;;;;;;;;6227948;23;20000;-92
2023/12/24 14:24:52;;;;;;;16.23;10.85;;;;;;;;;;6256965;22;20042;-93
2023/12/24 14:27:20;;;;;;;17.65;11.25;;;;;;;;;;6251177;23;20012;-87
2023/12/24 14:29:47;;;;;;;16.17;11.63;;;;;;;;;;6251303;22;20430;-89
2023/12/24 14:32:13;;;;;;;15.90;10.77;;;;;;;;;;6226149;23;20008;-88
2023/12/24 14:34:38;;;;;;;17.05;10.43;;;;;;;;;;6222784;23;20010;-91
2023/12/24 14:37:04;;;;;;;17.00;11.43;;;;;;;;;;6224629;23;20035;-94
2023/12/24 14:39:30;;;;;;;14.52;10.85;;;;;;;;;;6250126;22;20003;-91
2023/12/24 14:41:55;;;;;;;14.55;10.35;;;;;;;;;;6223735;23;20000;-89
2023/12/24 14:44:21;;;;;;;19.73;11.88;;;;;;;;;;6221943;23;20005;-87
2023/12/24 14:46:47;;;;;;;16.63;12.32;;;;;;;;;;6223342;23;20012;-90
2023/12/24 14:49:12;;;;;;;14.70;10.32;;;;;;;;;;6222508;23;20062;-91
2023/12/24 14:51:38;;;;;;;14.05;8.52;;;;;;;;;;6223092;23;20008;-91
2023/12/24 14:54:07;;;;;;;15.48;10.57;;;;;;;;;;6223817;23;20027;-87
2023/12/24 14:56:33;;;;;;;23.85;15.25;;;;;;;;;;6226001;23;20392;-94
2023/12/24 14:59:02;;;;;;;15.70;10.18;;;;;;;;;;6230384;23;20012;-96
2023/12/24 15:01:27;;;;;;;12.27;7.85;;;;;;;;;;6225953;23;20011;-92
2023/12/24 15:03:54;;;;;;;11.23;7.25;;;;;;;;;;6249603;23;20008;-92
2023/12/24 15:06:19;;;;;;;13.55;9.40;;;;;;;;;;6222067;23;20004;-88
2023/12/24 15:08:45;;;;;;;10.88;8.50;;;;;;;;;;6249216;22;20000;-88
2023/12/24 15:11:11;;;;;;;10.45;6.38;;;;;;;;;;6227968;23;20075;-92
2023/12/24 15:13:38;;;;;;;7.45;5.97;;;;;;;;;;6252884;23;20004;-90
2023/12/24 15:16:04;;;;;;;10.70;6.78;;;;;;;;;;6229274;23;20024;-86
2023/12/24 15:18:31;;;;;;;11.18;7.03;;;;;;;;;;6258925;22;19997;-88
2023/12/24 15:20:57;;;;;;;9.90;7.03;;;;;;;;;;6205617;23;20012;-91
2023/12/24 15:23:22;;;;;;;8.65;6.97;;;;;;;;;;6257594;23;20312;-89
2023/12/24 15:25:49;;;;;;;12.38;7.55;;;;;;;;;;6250779;23;20008;-95
2023/12/24 15:28:15;;;;;;;7.97;6.22;;;;;;;;;;6202721;22;20015;-90
2023/12/24 15:30:40;;;;;;;4.85;4.30;;;;;;;;;;6249360;23;20000;-93
2023/12/24 15:33:06;;;;;;;6.53;4.40;;;;;;;;;;6225265;23;20004;-95
2023/12/24 15:35:31;;;;;;;5.75;3.35;;;;;;;;;;6223344;23;20012;-92
2023/12/24 15:37:57;;;;;;;5.65;3.85;;;;;;;;;;6249331;22;20119;-89
2023/12/24 15:40:22;;;;;;;5.32;3.47;;;;;;;;;;6248034;23;20000;-93
2023/12/24 15:42:48;;;;;;;5.68;3.78;;;;;;;;;;6220838;23;20014;-91
2023/12/24 15:45:14;;;;;;;5.20;3.72;;;;;;;;;;6247688;23;20328;-92
2023/12/24 15:47:40;;;;;;;6.65;4.10;;;;;;;;;;6195785;23;20094;-90
2023/12/24 15:50:06;;;;;;;5.85;4.20;;;;;;;;;;6247925;22;20003;-90
2023/12/24 15:52:32;;;;;;;5.25;3.78;;;;;;;;;;6248337;23;20079;-92
2023/12/24 15:55:00;;;;;;;7.78;5.40;;;;;;;;;;6247894;23;20008;-90
2023/12/24 15:57:25;;;;;;;8.32;6.18;;;;;;;;;;6225352;23;20079;-88
2023/12/24 15:59:53;;;;;;;6.60;4.82;;;;;;;;;;6267232;22;20007;-89
2023/12/24 16:02:18;;;;;;;5.47;3.55;;;;;;;;;;6226003;22;20004;-92
2023/12/24 16:05:10;;;;;;;4.85;3.60;;;;;;;;;;6234321;23;20032;-86
2023/12/24 16:07:37;;;;;;;5.32;3.63;;;;;;;;;;6230112;22;20023;-90
2023/12/24 16:10:03;;;;;;;5.15;3.92;;;;;;;;;;6250738;23;20004;-87
2023/12/24 16:12:29;;;;;;;5.35;3.90;;;;;;;;;;6309447;22;20334;-94
2023/12/24 16:14:54;;;;;;;6.18;3.80;;;;;;;;;;6310354;22;20093;-94
2023/12/24 16:17:21;;;;;;;4.63;3.97;;;;;;;;;;6309232;22;20003;-91
2023/12/24 16:19:47;;;;;;;5.88;3.80;;;;;;;;;;6308635;22;19999;-88
2023/12/24 16:22:13;;;;;;;4.82;3.72;;;;;;;;;;6280165;22;20039;-87
2023/12/24 16:24:39;;;;;;;4.32;3.45;;;;;;;;;;6280094;22;20003;-88
2023/12/24 16:27:05;;;;;;;5.80;4.10;;;;;;;;;;6307786;22;20053;-85
2023/12/24 16:29:34;;;;;;;7.80;4.97;;;;;;;;;;6279988;22;20011;-88
2023/12/24 16:31:59;;;;;;;6.75;4.43;;;;;;;;;;6308452;22;20013;-89
2023/12/24 16:34:25;;;;;;;6.43;3.92;;;;;;;;;;6308167;22;20003;-91
2023/12/24 16:36:50;;;;;;;10.32;4.50;;;;;;;;;;6282934;22;20010;-86
2023/12/24 16:39:16;;;;;;;7.38;4.07;;;;;;;;;;6282599;22;20007;-87
2023/12/24 16:41:44;;;;;;;7.32;4.50;;;;;;;;;;6282137;22;20003;-85
2023/12/24 16:44:11;;;;;;;7.20;4.60;;;;;;;;;;6282686;22;20088;-87
2023/12/24 16:46:37;;;;;;;5.65;4.15;;;;;;;;;;6309335;22;20001;-88
2023/12/24 16:49:04;;;;;;;8.70;6.20;;;;;;;;;;6282268;22;20086;-88
2023/12/24 16:51:29;;;;;;;5.78;4.80;;;;;;;;;;6281834;22;20072;-86
2023/12/24 16:53:55;;;;;;;6.25;4.43;;;;;;;;;;6282225;22;20003;-87
2023/12/24 16:56:20;;;;;;;5.63;4.10;;;;;;;;;;6283088;22;20038;-92
2023/12/24 16:58:46;;;;;;;5.28;3.65;;;;;;;;;;6283663;22;19999;-90
2023/12/24 17:01:11;;;;;;;6.80;4.15;;;;;;;;;;6310643;22;19999;-90
2023/12/24 17:03:37;;;;;;;6.22;4.45;;;;;;;;;;6310792;22;20038;-92
2023/12/24 17:06:03;;;;;;;5.68;4.20;;;;;;;;;;6284506;22;20101;-92
2023/12/24 17:08:28;;;;;;;9.77;5.47;;;;;;;;;;6284108;22;20057;-90
2023/12/24 17:10:54;;;;;;;13.63;7.75;;;;;;;;;;6310656;22;20061;-91
2023/12/24 17:13:20;;;;;;;13.55;8.57;;;;;;;;;;6283419;22;20042;-92
2023/12/24 17:15:46;;;;;;;69.72;34.33;;;;;;;;;;6284231;22;20394;-91
2023/12/24 17:18:14;;;;;;;32.33;20.55;;;;;;;;;;6311061;22;20031;-94
2023/12/24 17:20:40;;;;;;;18.23;11.43;;;;;;;;;;6283283;22;20004;-90
2023/12/24 17:23:05;;;;;;;31.38;18.35;;;;;;;;;;6311161;22;20005;-92
2023/12/24 17:25:31;;;;;;;12.05;8.45;;;;;;;;;;6284286;22;20034;-87
2023/12/24 17:27:56;;;;;;;23.42;15.43;;;;;;;;;;6281954;22;19999;-87
2023/12/24 17:30:22;;;;;;;16.25;10.55;;;;;;;;;;6282484;22;20007;-88
2023/12/24 17:32:49;;;;;;;12.02;8.13;;;;;;;;;;6284200;22;20038;-89
2023/12/24 17:35:17;;;;;;;8.70;6.45;;;;;;;;;;6282526;22;20007;-90
2023/12/24 17:37:43;;;;;;;10.95;6.80;;;;;;;;;;6282032;22;20023;-87
2023/12/24 17:40:08;;;;;;;10.80;8.18;;;;;;;;;;6309693;22;20006;-87
